Time;durP1;ratioP1;P1;durP2;ratioP2;P2;SDS_P1;SDS_P2;PMS_P1;PMS_P2;Temp;Humidity;BMP_temperature;BMP_pressure;BME280_temperature;BME280_humidity;BME280_pressure;Samples;Min_cycle;Max_cycle;Signal;HPM_P1;HPM_P2
2024/03/10 00:01:18;;;;;;;38.22;14.65;;;;;;;7.98;74.03;97982.22;5049436;28;20491;-46
2024/03/10 00:03:45;;;;;;;33.83;11.85;;;;;;;7.98;73.81;97987.38;5048789;28;20049;-47
2024/03/10 00:06:12;;;;;;;35.88;12.52;;;;;;;7.97;74.48;97980.53;5055729;28;20055;-42
2024/03/10 00:08:42;;;;;;;31.35;11.32;;;;;;;7.97;74.00;97985.69;5047862;28;20108;-43
2024/03/10 00:11:10;;;;;;;32.80;12.18;;;;;;;7.98;73.78;97981.38;5048314;28;20053;-49
2024/03/10 00:13:37;;;;;;;35.13;11.10;;;;;;;7.98;73.83;97983.97;5045997;28;20458;-46
2024/03/10 00:16:04;;;;;;;39.67;13.13;;;;;;;7.99;73.77;97980.50;5042653;28;20041;-45
2024/03/10 00:18:32;;;;;;;33.60;11.95;;;;;;;8.01;74.55;97980.47;5041960;28;20053;-46
2024/03/10 00:21:01;;;;;;;30.52;10.30;;;;;;;7.98;74.97;97971.91;5043583;28;20046;-45
2024/03/10 00:23:28;;;;;;;30.00;11.30;;;;;;;8.00;75.10;97969.28;5042796;28;20084;-45
2024/03/10 00:25:54;;;;;;;34.50;11.30;;;;;;;8.01;73.71;97962.41;5046274;28;20051;-45
2024/03/10 00:28:21;;;;;;;35.17;11.77;;;;;;;8.00;74.70;97950.41;5048640;28;20053;-47
2024/03/10 00:30:48;;;;;;;40.58;12.18;;;;;;;7.98;75.11;97940.97;5041300;28;20069;-48
2024/03/10 00:33:15;;;;;;;36.30;11.23;;;;;;;7.97;74.66;97954.75;5036095;28;20056;-45
2024/03/10 00:35:43;;;;;;;34.10;12.30;;;;;;;7.97;74.84;97957.34;5039416;28;20061;-47
2024/03/10 00:38:10;;;;;;;33.20;12.15;;;;;;;7.98;74.35;97960.75;5040452;28;20466;-47
2024/03/10 00:40:37;;;;;;;30.90;11.27;;;;;;;7.96;75.59;97957.38;5028016;28;20103;-47
2024/03/10 00:43:04;;;;;;;33.22;11.07;;;;;;;7.95;74.95;97961.69;5027252;28;20049;-49
2024/03/10 00:45:30;;;;;;;34.63;12.43;;;;;;;7.96;74.83;97963.38;5024589;28;20133;-46
2024/03/10 00:47:59;;;;;;;37.90;11.75;;;;;;;7.94;75.27;97962.56;5018584;28;20128;-46
2024/03/10 00:50:26;;;;;;;35.45;13.38;;;;;;;7.96;75.73;97973.69;5022347;28;20459;-49
2024/03/10 00:52:53;;;;;;;33.42;10.68;;;;;;;7.96;74.82;97973.69;5026400;28;20042;-53
2024/03/10 00:55:21;;;;;;;41.72;12.38;;;;;;;7.97;74.94;97980.53;5018992;28;20122;-46
2024/03/10 00:57:48;;;;;;;36.05;12.50;;;;;;;7.98;75.87;97976.22;5022050;28;20058;-46
2024/03/10 01:00:15;;;;;;;33.08;10.50;;;;;;;7.98;75.38;97976.22;5027301;28;20056;-49
2024/03/10 01:02:44;;;;;;;31.75;13.35;;;;;;;7.96;74.77;97978.00;5023975;28;20130;-52
2024/03/10 01:05:11;;;;;;;22.35;9.70;;;;;;;7.96;75.20;97978.00;5025995;28;20050;-48
2024/03/10 01:07:38;;;;;;;27.13;10.55;;;;;;;7.98;75.09;97971.06;5040790;28;20045;-50
2024/03/10 01:10:07;;;;;;;30.58;12.02;;;;;;;7.99;75.08;97970.19;5049945;28;20044;-45
2024/03/10 01:12:34;;;;;;;35.17;13.38;;;;;;;7.97;75.73;97967.63;5041472;28;20055;-48
2024/03/10 01:15:03;;;;;;;36.28;12.73;;;;;;;7.97;76.36;97970.22;5044241;28;20053;-46
2024/03/10 01:17:31;;;;;;;28.38;11.40;;;;;;;8.00;75.63;97968.47;5041408;28;20053;-48
2024/03/10 01:20:00;;;;;;;29.23;12.40;;;;;;;8.00;75.66;97974.44;5042486;28;20053;-49
2024/03/10 01:22:28;;;;;;;29.10;11.77;;;;;;;8.00;76.47;97971.88;5040163;28;24081;-44
2024/03/10 01:24:56;;;;;;;33.20;12.90;;;;;;;8.04;76.23;97967.50;5046043;28;20051;-45
2024/03/10 01:27:24;;;;;;;32.22;13.13;;;;;;;8.03;76.76;97965.78;5049292;28;20065;-49
2024/03/10 01:29:51;;;;;;;29.50;13.75;;;;;;;8.01;76.44;97963.28;5046308;28;20452;-47
2024/03/10 01:32:19;;;;;;;31.33;12.07;;;;;;;8.03;75.74;97964.06;5051932;28;20838;-45
2024/03/10 01:34:46;;;;;;;32.03;12.20;;;;;;;8.06;75.97;97965.72;5045347;28;20048;-48
2024/03/10 01:37:14;;;;;;;37.70;13.23;;;;;;;8.06;76.71;97963.13;5042802;28;20049;-49
2024/03/10 01:39:41;;;;;;;36.25;11.88;;;;;;;8.05;76.10;97962.31;5040425;28;20100;-44
2024/03/10 01:42:11;;;;;;;37.28;12.52;;;;;;;8.05;76.07;97967.47;5043763;28;20053;-43
2024/03/10 01:44:38;;;;;;;37.13;13.85;;;;;;;8.08;76.46;97956.22;5044444;28;20080;-45
2024/03/10 01:47:06;;;;;;;37.63;13.05;;;;;;;8.08;76.93;97951.88;5036268;28;20060;-46
2024/03/10 01:49:34;;;;;;;32.70;12.13;;;;;;;8.07;76.45;97954.53;5046241;28;20053;-47
2024/03/10 01:52:02;;;;;;;35.28;13.13;;;;;;;8.05;76.58;97946.84;5054604;28;20060;-47
2024/03/10 01:54:34;;;;;;;34.60;13.02;;;;;;;8.06;76.58;97952.81;5040826;28;20049;-47
2024/03/10 01:57:04;;;;;;;39.60;13.38;;;;;;;8.09;76.42;97955.31;5038694;28;20462;-50
2024/03/10 01:59:32;;;;;;;37.75;13.45;;;;;;;8.07;77.48;97960.50;5041556;28;20139;-46
2024/03/10 02:01:59;;;;;;;34.67;13.27;;;;;;;8.08;77.17;97957.03;5044489;28;20056;-47
2024/03/10 02:04:26;;;;;;;37.75;14.43;;;;;;;8.08;77.04;97951.88;5041062;28;20119;-44
2024/03/10 02:06:55;;;;;;;36.45;14.10;;;;;;;8.09;77.79;97953.59;5040616;28;20079;-45
2024/03/10 02:09:21;;;;;;;41.20;13.98;;;;;;;8.07;77.82;97964.84;5045414;28;20044;-47
2024/03/10 02:11:48;;;;;;;40.28;13.82;;;;;;;8.09;77.93;97952.75;5044544;28;20053;-42
2024/03/10 02:14:16;;;;;;;45.28;15.30;;;;;;;8.08;77.23;97951.88;5041626;28;20051;-44
2024/03/10 02:16:43;;;;;;;39.40;14.48;;;;;;;8.09;77.39;97958.75;5040098;28;20098;-45
2024/03/10 02:19:10;;;;;;;39.25;15.05;;;;;;;8.08;77.49;97951.06;5039930;28;20075;-45
2024/03/10 02:21:37;;;;;;;38.00;14.02;;;;;;;8.08;78.19;97951.06;5036952;28;20509;-45
2024/03/10 02:26:46;;;;;;;31.38;13.88;;;;;;;8.05;77.92;97940.81;5081335;27;20386;-45
2024/03/10 02:29:15;;;;;;;40.08;16.88;;;;;;;8.06;77.63;97932.19;5068979;28;20048;-45
2024/03/10 02:48:26;;;;;;;37.80;16.75;;;;;;;8.10;77.83;97913.16;5055558;28;20063;-47
2024/03/10 02:50:53;;;;;;;36.35;16.23;;;;;;;8.10;78.44;97913.16;5064582;28;20109;-47
2024/03/10 02:53:19;;;;;;;43.13;17.25;;;;;;;8.12;78.03;97906.25;5067189;28;20087;-43
2024/03/10 02:55:46;;;;;;;40.63;16.08;;;;;;;8.09;77.36;97907.19;5071783;28;20044;-44
2024/03/10 02:58:13;;;;;;;37.03;16.83;;;;;;;8.12;77.62;97901.09;5059345;28;20506;-44
2024/03/10 03:00:40;;;;;;;38.78;15.07;;;;;;;8.12;78.21;97905.41;5062167;28;20490;-47
2024/03/10 03:03:08;;;;;;;38.92;14.90;;;;;;;8.12;77.44;97901.09;5070987;28;20527;-43
2024/03/10 03:05:39;;;;;;;41.65;15.73;;;;;;;8.11;77.67;97902.00;5056055;28;20500;-44
2024/03/10 03:08:07;;;;;;;34.60;15.60;;;;;;;8.12;78.17;97906.25;5062418;28;20048;-43
2024/03/10 03:10:35;;;;;;;46.92;17.63;;;;;;;8.10;78.42;97919.19;5060918;28;20047;-47
2024/03/10 03:13:02;;;;;;;38.47;15.77;;;;;;;8.13;77.96;97917.41;5066219;28;20853;-44
2024/03/10 03:15:29;;;;;;;38.58;15.13;;;;;;;8.12;78.40;97911.41;5067347;28;20045;-47
2024/03/10 03:17:57;;;;;;;35.85;14.93;;;;;;;8.12;78.23;97908.84;5072081;28;20844;-46
2024/03/10 03:20:26;;;;;;;36.63;15.27;;;;;;;8.12;77.80;97903.69;5056964;28;20107;-46
2024/03/10 03:22:54;;;;;;;36.42;15.85;;;;;;;8.13;78.08;97907.94;5064057;28;20049;-48
2024/03/10 03:25:22;;;;;;;41.70;16.02;;;;;;;8.15;78.76;97911.34;5044048;28;20049;-46
2024/03/10 03:27:51;;;;;;;37.92;15.88;;;;;;;8.15;78.53;97907.91;5066867;28;20457;-47
2024/03/10 03:30:18;;;;;;;48.72;15.02;;;;;;;8.13;78.58;97910.50;5063524;28;20049;-44
2024/03/10 03:32:45;;;;;;;32.08;13.80;;;;;;;8.12;78.18;97911.41;5068748;28;20155;-45
2024/03/10 03:35:15;;;;;;;36.08;13.48;;;;;;;8.14;78.21;97904.47;5067380;28;20434;-45
2024/03/10 03:37:45;;;;;;;30.02;12.77;;;;;;;8.12;78.99;97911.41;5043968;28;20080;-49
2024/03/10 03:40:14;;;;;;;32.00;13.10;;;;;;;8.12;78.89;97924.31;5052316;28;20060;-44
2024/03/10 03:42:41;;;;;;;38.38;15.45;;;;;;;8.15;78.03;97919.06;5064199;28;20052;-46
2024/03/10 03:45:08;;;;;;;36.67;15.40;;;;;;;8.12;78.22;97920.88;5058640;28;20049;-48
2024/03/10 03:47:35;;;;;;;38.50;15.70;;;;;;;8.10;78.10;97924.34;5067917;28;20102;-48
2024/03/10 03:50:03;;;;;;;31.40;12.88;;;;;;;8.11;78.40;97920.03;5059025;28;20044;-45
2024/03/10 03:52:29;;;;;;;40.42;16.95;;;;;;;8.12;79.20;97924.31;5051963;28;20048;-44
2024/03/10 03:54:57;;;;;;;27.80;12.18;;;;;;;8.13;78.30;97925.13;5047369;28;20420;-45
2024/03/10 03:57:23;;;;;;;37.63;15.07;;;;;;;8.13;78.54;97918.25;5053632;28;20156;-46
2024/03/10 03:59:50;;;;;;;34.95;15.55;;;;;;;8.12;78.76;97921.72;5058670;28;20052;-44
2024/03/10 04:02:23;;;;;;;35.90;14.77;;;;;;;8.12;78.27;97921.72;5051522;28;20053;-43
2024/03/10 04:04:50;;;;;;;35.78;14.95;;;;;;;8.14;78.97;97925.09;5065728;28;20055;-45
2024/03/10 04:07:17;;;;;;;39.17;18.33;;;;;;;8.13;79.27;97928.56;5051848;28;20432;-44
2024/03/10 04:09:43;;;;;;;35.63;14.32;;;;;;;8.13;79.22;97927.72;5053681;28;20049;-43
2024/03/10 04:12:10;;;;;;;39.13;15.20;;;;;;;8.13;78.43;97918.25;5046674;28;20056;-45
2024/03/10 04:14:37;;;;;;;36.10;14.35;;;;;;;8.14;78.64;97919.94;5057245;28;20094;-47
2024/03/10 04:17:04;;;;;;;31.20;13.45;;;;;;;8.13;78.83;97923.41;5042299;28;20045;-45
2024/03/10 04:19:31;;;;;;;27.98;12.25;;;;;;;8.13;79.36;97925.97;5056458;28;20107;-43
2024/03/10 04:21:58;;;;;;;40.85;13.70;;;;;;;8.15;79.24;97921.66;5032983;28;20048;-43
2024/03/10 04:24:25;;;;;;;37.95;14.68;;;;;;;8.15;79.53;97931.97;5050619;28;20457;-45
2024/03/10 04:26:52;;;;;;;32.00;12.32;;;;;;;8.15;79.56;97926.81;5053611;28;20402;-44
2024/03/10 04:29:19;;;;;;;29.83;11.23;;;;;;;8.14;78.99;97921.69;5049338;28;20054;-43
2024/03/10 04:31:47;;;;;;;32.85;13.43;;;;;;;8.14;79.17;97929.41;5042011;28;20119;-44
2024/03/10 04:34:14;;;;;;;32.97;14.48;;;;;;;8.17;79.51;97927.59;5051501;28;20052;-44
2024/03/10 04:36:40;;;;;;;30.38;11.93;;;;;;;8.16;79.78;97933.66;5053722;28;20041;-44
2024/03/10 04:39:09;;;;;;;29.25;12.63;;;;;;;8.14;79.76;97939.75;5051933;28;20055;-45
2024/03/10 04:41:37;;;;;;;24.92;10.77;;;;;;;8.10;79.99;97944.13;5052520;28;20129;-43
2024/03/10 04:44:04;;;;;;;20.85;8.40;;;;;;;8.10;79.54;97938.97;5050213;28;20049;-47
2024/03/10 04:46:32;;;;;;;16.65;8.07;;;;;;;8.12;79.81;97937.19;5046010;28;20061;-43
2024/03/10 04:48:59;;;;;;;18.10;7.55;;;;;;;8.08;81.23;97940.75;5045097;28;20522;-44
2024/03/10 04:51:26;;;;;;;11.77;6.65;;;;;;;8.06;81.42;97947.66;5043307;28;20466;-46
2024/03/10 04:53:52;;;;;;;12.25;6.80;;;;;;;8.01;82.69;97944.38;5037811;28;20041;-43
2024/03/10 04:56:19;;;;;;;10.60;6.20;;;;;;;7.95;82.98;97941.06;5058563;28;20044;-43
2024/03/10 04:58:46;;;;;;;9.95;5.85;;;;;;;7.97;83.29;97956.47;5043406;28;20052;-44
2024/03/10 05:01:16;;;;;;;10.13;4.38;;;;;;;8.01;82.06;97944.38;5048666;28;20469;-44
2024/03/10 05:03:43;;;;;;;11.95;6.45;;;;;;;8.03;82.95;97947.72;5049918;28;20045;-47
2024/03/10 05:06:09;;;;;;;9.75;5.18;;;;;;;8.04;82.01;97949.44;5050202;28;20053;-47
2024/03/10 05:08:37;;;;;;;10.93;3.72;;;;;;;8.06;82.05;97952.81;5048238;28;20441;-45
2024/03/10 05:11:04;;;;;;;9.35;4.95;;;;;;;8.10;81.66;97954.44;5052170;28;20073;-44
2024/03/10 05:13:35;;;;;;;12.30;6.18;;;;;;;8.10;81.93;97959.59;5045507;28;20049;-43
2024/03/10 05:16:03;;;;;;;11.77;5.53;;;;;;;8.16;81.86;97951.69;5030132;28;20071;-47
2024/03/10 05:18:31;;;;;;;14.65;4.88;;;;;;;8.10;81.78;97955.28;5052914;28;20100;-45
2024/03/10 05:20:58;;;;;;;7.40;4.90;;;;;;;8.10;82.00;97957.00;5048291;28;20485;-46
2024/03/10 05:23:26;;;;;;;10.88;5.50;;;;;;;8.13;81.77;97954.34;5043508;28;20053;-43
2024/03/10 05:25:53;;;;;;;11.50;5.93;;;;;;;8.08;82.72;97966.53;5048749;28;20052;-46
2024/03/10 05:28:20;;;;;;;10.52;5.20;;;;;;;8.07;82.21;97959.69;5051872;28;20099;-42
2024/03/10 05:30:47;;;;;;;9.90;5.20;;;;;;;8.13;82.68;97958.66;5050782;28;20123;-44
2024/03/10 05:33:14;;;;;;;8.95;5.00;;;;;;;8.11;82.76;97958.72;5045058;28;20047;-46
2024/03/10 05:35:41;;;;;;;8.20;4.97;;;;;;;8.09;82.01;97957.91;5039618;28;20098;-45
2024/03/10 05:38:08;;;;;;;8.23;4.70;;;;;;;8.08;83.49;97969.09;5045513;28;20052;-44
2024/03/10 05:40:34;;;;;;;9.18;5.53;;;;;;;8.06;83.27;97961.41;5047302;28;20056;-46
2024/03/10 05:43:01;;;;;;;11.27;4.97;;;;;;;8.08;83.08;97957.03;5049931;28;20041;-44
2024/03/10 05:45:28;;;;;;;8.88;4.25;;;;;;;8.12;83.21;97967.28;5050003;28;20037;-45
2024/03/10 05:47:54;;;;;;;6.72;4.18;;;;;;;8.09;82.88;97978.53;5051065;28;20056;-45
2024/03/10 05:50:21;;;;;;;7.15;4.95;;;;;;;8.05;83.61;97972.63;5051698;28;20076;-45
2024/03/10 05:52:49;;;;;;;9.23;4.53;;;;;;;8.00;83.73;97978.78;5048503;28;20175;-44
2024/03/10 05:55:16;;;;;;;8.23;4.30;;;;;;;8.07;83.79;97975.16;5049475;28;20053;-44
2024/03/10 05:57:43;;;;;;;8.70;5.13;;;;;;;8.08;83.52;97979.41;5053215;28;20573;-45
2024/03/10 06:00:17;;;;;;;6.38;4.07;;;;;;;8.10;82.78;97985.38;5041175;28;20056;-45
2024/03/10 06:02:45;;;;;;;5.78;2.70;;;;;;;8.09;82.82;97983.69;5043826;28;20448;-47
2024/03/10 06:05:14;;;;;;;9.07;4.60;;;;;;;8.10;83.56;97985.38;5034445;28;20136;-45
2024/03/10 06:07:43;;;;;;;7.38;4.53;;;;;;;8.07;83.23;97985.47;5035203;28;20083;-46
2024/03/10 06:10:11;;;;;;;9.23;4.65;;;;;;;8.07;83.87;97985.47;5055122;28;20426;-47
2024/03/10 06:12:39;;;;;;;5.60;4.95;;;;;;;8.02;83.43;97992.47;5049147;28;20529;-44
2024/03/10 06:15:10;;;;;;;4.28;3.55;;;;;;;8.06;84.36;98009.53;5048084;28;20053;-44
2024/03/10 06:17:40;;;;;;;6.70;4.38;;;;;;;8.05;83.01;97993.25;5050181;28;20570;-44
2024/03/10 06:25:42;;;;;;;6.32;4.10;;;;;;;8.09;83.93;98004.31;5032473;28;20075;-42
2024/03/10 06:28:09;;;;;;;5.47;3.50;;;;;;;8.04;84.17;98011.31;5050439;28;20052;-46
2024/03/10 06:30:35;;;;;;;7.38;4.30;;;;;;;8.07;83.98;98006.09;5043688;28;20053;-44
2024/03/10 06:33:02;;;;;;;12.05;4.75;;;;;;;8.05;83.41;98013.00;5055000;28;20055;-45
2024/03/10 06:35:29;;;;;;;7.05;4.25;;;;;;;8.00;84.06;98017.44;5041109;28;20069;-47
2024/03/10 06:37:56;;;;;;;6.03;3.78;;;;;;;8.05;84.14;98020.75;5055194;28;20134;-44
2024/03/10 06:40:23;;;;;;;6.20;4.55;;;;;;;7.93;84.27;98021.88;5046318;28;20763;-43
2024/03/10 06:42:50;;;;;;;7.78;4.43;;;;;;;7.95;84.09;98022.72;5062580;28;20062;-44
2024/03/10 06:45:17;;;;;;;9.60;5.28;;;;;;;7.99;84.16;98024.31;5043933;28;20045;-45
2024/03/10 06:47:44;;;;;;;6.10;3.78;;;;;;;7.96;85.12;98025.25;5051623;28;20456;-49
2024/03/10 06:50:11;;;;;;;7.72;5.95;;;;;;;7.91;84.46;98039.97;5049787;28;20124;-46
2024/03/10 06:52:38;;;;;;;8.98;5.45;;;;;;;7.88;85.63;98052.09;5045296;28;20045;-45
2024/03/10 06:55:07;;;;;;;7.60;5.07;;;;;;;7.91;85.14;98046.88;5057298;28;20072;-47
2024/03/10 06:57:33;;;;;;;10.32;4.85;;;;;;;7.91;85.04;98059.75;5054742;28;20514;-43
2024/03/10 07:00:00;;;;;;;10.10;4.60;;;;;;;7.83;86.11;98059.94;5052158;28;20059;-44
2024/03/10 07:02:28;;;;;;;6.90;3.60;;;;;;;7.84;86.07;98064.22;5048905;28;20415;-42
2024/03/10 07:04:56;;;;;;;6.97;4.93;;;;;;;7.84;85.53;98087.41;5048407;28;20163;-45
2024/03/10 07:07:26;;;;;;;8.45;4.63;;;;;;;7.87;84.93;98077.00;5039409;28;20048;-45
2024/03/10 07:09:53;;;;;;;7.60;4.88;;;;;;;7.89;85.57;98084.72;5045051;28;20068;-44
2024/03/10 07:12:20;;;;;;;10.77;5.60;;;;;;;7.82;86.33;98094.31;5043565;28;20507;-44
2024/03/10 07:14:47;;;;;;;7.40;4.72;;;;;;;7.87;85.47;98100.19;5044738;28;20052;-46
2024/03/10 07:17:15;;;;;;;7.05;4.85;;;;;;;7.81;86.24;98097.78;5049011;28;20144;-43
2024/03/10 07:19:42;;;;;;;7.97;4.70;;;;;;;7.88;86.08;98101.94;5049809;28;20751;-42
2024/03/10 07:22:09;;;;;;;10.10;4.60;;;;;;;7.91;85.78;98112.13;5054203;28;20051;-44
2024/03/10 07:24:37;;;;;;;7.57;5.38;;;;;;;7.87;84.91;98107.09;5029193;28;20057;-44
2024/03/10 07:27:05;;;;;;;8.88;4.18;;;;;;;7.86;85.75;98121.72;5047900;28;20053;-45
2024/03/10 07:29:33;;;;;;;6.25;4.25;;;;;;;7.89;85.39;98126.81;5043307;28;20087;-47
2024/03/10 07:32:00;;;;;;;7.18;4.90;;;;;;;7.89;84.85;98131.97;5046487;28;20041;-43
2024/03/10 07:34:28;;;;;;;6.57;4.22;;;;;;;7.95;85.68;98133.56;5048933;28;20060;-43
2024/03/10 07:36:55;;;;;;;6.90;4.28;;;;;;;7.94;84.86;98135.28;5023100;28;20417;-45
2024/03/10 07:39:22;;;;;;;6.88;4.72;;;;;;;7.95;84.85;98137.00;5055392;28;20600;-43
2024/03/10 07:41:49;;;;;;;9.43;4.75;;;;;;;7.92;84.98;98139.63;5055980;28;20053;-44
2024/03/10 07:44:17;;;;;;;7.97;4.55;;;;;;;7.96;85.38;98135.25;5052875;28;20103;-45
2024/03/10 07:46:44;;;;;;;9.55;4.15;;;;;;;8.02;84.56;98142.84;5047375;28;20059;-45
2024/03/10 07:49:11;;;;;;;7.97;4.40;;;;;;;8.10;84.40;98150.38;5038942;28;20053;-44
2024/03/10 07:51:38;;;;;;;7.18;4.60;;;;;;;8.10;83.88;98160.72;5050106;28;20221;-46
2024/03/10 07:54:05;;;;;;;6.85;3.72;;;;;;;8.10;84.01;98161.56;5052724;28;20060;-46
2024/03/10 07:56:32;;;;;;;10.05;4.35;;;;;;;8.18;83.51;98158.78;5045101;28;20044;-46
2024/03/10 07:59:00;;;;;;;6.18;3.95;;;;;;;8.23;83.65;98161.28;5057356;28;20150;-44
2024/03/10 08:01:27;;;;;;;8.25;4.88;;;;;;;8.27;83.73;98159.47;5023240;28;20072;-46
2024/03/10 08:03:55;;;;;;;6.18;3.92;;;;;;;8.26;83.14;98165.50;5038980;28;20637;-43
2024/03/10 08:06:22;;;;;;;7.75;5.07;;;;;;;8.29;83.55;98162.84;5042447;28;20490;-45
2024/03/10 08:08:51;;;;;;;10.20;5.05;;;;;;;8.32;83.05;98160.22;5049575;28;20052;-44
2024/03/10 08:11:18;;;;;;;5.93;3.70;;;;;;;8.29;83.54;98165.44;5051328;28;20056;-45
2024/03/10 08:13:45;;;;;;;13.35;5.28;;;;;;;8.23;83.66;98172.44;5054924;28;20048;-48
2024/03/10 08:16:13;;;;;;;12.18;5.45;;;;;;;8.33;83.07;98169.63;5053564;28;20051;-44
2024/03/10 08:18:41;;;;;;;11.60;4.57;;;;;;;8.34;82.76;98179.06;5044397;28;20135;-44
2024/03/10 08:21:08;;;;;;;6.60;4.20;;;;;;;8.34;83.27;98173.91;5040917;28;20041;-45
2024/03/10 08:23:34;;;;;;;8.93;4.40;;;;;;;8.39;83.01;98174.66;5040675;28;20045;-44
2024/03/10 08:26:01;;;;;;;8.27;4.40;;;;;;;8.40;82.27;98158.28;5052490;28;20102;-44
2024/03/10 08:28:28;;;;;;;8.32;4.75;;;;;;;8.44;82.29;98170.22;5047222;28;20060;-44
2024/03/10 08:30:55;;;;;;;10.25;4.50;;;;;;;8.48;81.97;98166.69;5048005;28;20489;-44
2024/03/10 08:33:21;;;;;;;9.25;4.18;;;;;;;8.52;82.21;98161.47;5038459;28;20470;-48
2024/03/10 08:35:49;;;;;;;9.60;5.03;;;;;;;8.56;81.64;98165.69;5041109;28;20482;-46
2024/03/10 08:38:16;;;;;;;7.90;5.05;;;;;;;8.56;81.76;98173.44;5041254;28;20088;-47
2024/03/10 08:40:43;;;;;;;8.23;4.65;;;;;;;8.55;81.94;98171.75;5046322;28;20037;-46
2024/03/10 08:43:09;;;;;;;9.55;5.30;;;;;;;8.57;82.01;98172.53;5024634;28;20052;-47
2024/03/10 08:45:37;;;;;;;11.70;5.05;;;;;;;8.57;81.77;98175.13;5045196;28;20052;-46
2024/03/10 08:48:04;;;;;;;8.93;4.68;;;;;;;8.57;81.31;98185.44;5039838;28;20048;-45
2024/03/10 08:50:32;;;;;;;12.75;5.45;;;;;;;8.57;81.97;98186.28;5039356;28;20075;-47
2024/03/10 08:52:59;;;;;;;10.73;4.97;;;;;;;8.57;82.25;98180.28;5040961;28;20150;-46
2024/03/10 08:55:25;;;;;;;9.82;5.03;;;;;;;8.58;82.35;98192.31;5043880;28;20541;-47
2024/03/10 08:57:52;;;;;;;8.75;4.93;;;;;;;8.59;81.98;98199.16;5047579;28;20139;-45
2024/03/10 09:00:20;;;;;;;7.60;4.75;;;;;;;8.52;81.71;98188.13;5037842;28;20053;-42
2024/03/10 09:02:47;;;;;;;9.50;5.35;;;;;;;8.58;81.98;98197.47;5046869;28;20501;-45
2024/03/10 09:05:15;;;;;;;11.95;6.28;;;;;;;8.61;81.76;98187.06;5048348;28;20096;-45
2024/03/10 09:07:42;;;;;;;8.65;5.60;;;;;;;8.62;81.56;98188.78;5041534;28;20049;-44
2024/03/10 09:10:10;;;;;;;9.48;5.78;;;;;;;8.67;82.01;98197.25;5029744;28;20049;-44
2024/03/10 09:12:38;;;;;;;12.52;4.70;;;;;;;8.70;81.85;98193.72;5062053;28;20691;-46
2024/03/10 09:15:06;;;;;;;16.23;7.82;;;;;;;8.77;81.84;98197.00;5047636;28;20049;-43
2024/03/10 09:17:33;;;;;;;12.35;6.65;;;;;;;8.82;81.99;98195.16;5048685;28;20049;-46
2024/03/10 09:20:00;;;;;;;14.98;7.05;;;;;;;8.87;82.15;98196.75;5048628;28;20077;-47
2024/03/10 09:22:26;;;;;;;13.35;7.32;;;;;;;8.91;81.96;98200.06;5049098;28;20049;-44
2024/03/10 09:24:54;;;;;;;16.15;6.53;;;;;;;8.94;81.99;98200.00;5042747;28;20903;-46
2024/03/10 09:27:21;;;;;;;20.40;8.35;;;;;;;8.98;81.54;98206.78;5049623;28;20041;-47
2024/03/10 09:29:51;;;;;;;14.80;8.02;;;;;;;9.01;81.41;98203.28;5045997;28;20131;-43
2024/03/10 09:32:22;;;;;;;17.77;8.38;;;;;;;9.00;81.45;98207.59;5038963;28;20060;-45
2024/03/10 09:34:49;;;;;;;19.05;8.05;;;;;;;9.02;81.61;98206.72;5038127;28;20136;-43
2024/03/10 09:37:16;;;;;;;18.75;9.38;;;;;;;9.04;81.21;98204.91;5037524;28;20037;-44
2024/03/10 09:39:43;;;;;;;22.98;9.13;;;;;;;9.05;81.33;98206.63;5041446;28;20056;-44
2024/03/10 09:42:14;;;;;;;17.30;8.50;;;;;;;9.03;81.36;98204.09;5048478;28;20128;-45
2024/03/10 09:44:42;;;;;;;21.48;8.52;;;;;;;9.04;81.55;98202.34;5040678;28;20409;-44
2024/03/10 09:47:10;;;;;;;24.83;9.65;;;;;;;9.05;80.79;98201.47;5025144;28;20052;-45
2024/03/10 09:49:38;;;;;;;26.40;12.02;;;;;;;9.03;81.37;98193.75;5042648;28;20049;-47
2024/03/10 09:52:06;;;;;;;27.48;12.82;;;;;;;9.04;80.94;98197.16;5039374;28;20076;-47
2024/03/10 09:54:33;;;;;;;30.00;11.55;;;;;;;8.96;81.41;98198.25;5039231;28;20135;-45
2024/03/10 09:57:00;;;;;;;32.65;12.70;;;;;;;8.98;81.31;98201.63;5047017;28;20387;-48
2024/03/10 09:59:36;;;;;;;33.65;15.07;;;;;;;8.99;81.34;98200.72;5041132;28;20056;-47
2024/03/10 10:02:06;;;;;;;34.17;14.48;;;;;;;9.04;81.51;98204.91;5042230;28;20057;-45
2024/03/10 10:04:46;;;;;;;31.02;13.77;;;;;;;9.05;81.06;98201.47;5047290;28;20574;-46
2024/03/10 10:07:14;;;;;;;36.88;15.32;;;;;;;9.06;80.76;98206.59;5042366;28;20044;-43
2024/03/10 10:09:54;;;;;;;31.95;12.88;;;;;;;9.07;80.97;98210.00;5050390;28;20678;-45
2024/03/10 10:12:21;;;;;;;37.15;15.60;;;;;;;9.10;81.10;98207.34;5044711;28;20075;-44
2024/03/10 10:14:48;;;;;;;40.83;15.88;;;;;;;9.08;81.08;98211.69;5041130;28;20638;-44
2024/03/10 10:17:15;;;;;;;39.42;15.73;;;;;;;9.07;81.09;98210.00;5054549;28;20525;-45
2024/03/10 10:19:41;;;;;;;42.30;18.05;;;;;;;9.06;80.99;98213.50;5044359;28;20060;-45
2024/03/10 10:22:08;;;;;;;40.65;16.65;;;;;;;9.02;80.81;98209.28;5039976;28;20045;-46
2024/03/10 10:24:35;;;;;;;36.78;16.02;;;;;;;8.98;80.66;98214.53;5038273;28;20040;-44
2024/03/10 10:27:03;;;;;;;43.60;16.75;;;;;;;8.94;80.69;98220.66;5042370;28;20052;-45
2024/03/10 10:29:31;;;;;;;39.08;14.65;;;;;;;8.89;81.26;98212.19;5027746;28;20061;-45
2024/03/10 10:31:59;;;;;;;48.78;17.52;;;;;;;8.90;80.60;98216.47;5024648;28;20135;-44
2024/03/10 10:34:28;;;;;;;42.13;16.85;;;;;;;8.86;80.59;98222.59;5023775;28;20057;-45
2024/03/10 10:36:55;;;;;;;45.28;16.52;;;;;;;8.83;80.70;98227.81;5019568;28;20045;-44
2024/03/10 10:39:26;;;;;;;41.70;15.75;;;;;;;8.78;81.04;98234.84;5042866;28;20041;-46
2024/03/10 10:41:55;;;;;;;41.00;15.13;;;;;;;8.68;80.68;98235.06;5022833;28;20080;-47
2024/03/10 10:44:27;;;;;;;38.65;14.65;;;;;;;8.70;81.10;98233.31;5045371;28;20054;-47
2024/03/10 10:46:53;;;;;;;39.65;16.80;;;;;;;8.68;80.66;98232.47;5043800;28;20044;-46
2024/03/10 10:49:21;;;;;;;31.85;14.82;;;;;;;8.68;80.58;98235.06;5049870;28;20700;-46
2024/03/10 10:51:50;;;;;;;37.38;14.85;;;;;;;8.64;80.99;98228.28;5044321;28;20053;-47
2024/03/10 10:54:19;;;;;;;40.20;16.05;;;;;;;8.62;81.76;98242.97;5055419;28;20045;-47
2024/03/10 10:56:56;;;;;;;36.78;15.23;;;;;;;8.59;80.57;98240.44;5053432;28;20053;-45
2024/03/10 10:59:25;;;;;;;42.58;15.77;;;;;;;8.59;80.99;98240.44;5040469;28;20057;-46
2024/03/10 11:04:31;;;;;;;62.67;21.98;;;;;;;8.95;80.16;98257.66;5088328;27;20410;-46
2024/03/10 11:06:58;;;;;;;42.00;16.35;;;;;;;8.69;81.18;98246.25;5052867;28;20041;-44
2024/03/10 11:09:28;;;;;;;39.63;15.02;;;;;;;8.61;81.20;98256.72;5065464;28;20059;-46
2024/03/10 11:11:55;;;;;;;43.80;16.17;;;;;;;8.60;81.46;98255.03;5074924;28;20052;-45
2024/03/10 11:14:25;;;;;;;44.92;16.30;;;;;;;8.61;81.27;98259.31;5075477;28;20067;-45
2024/03/10 11:17:15;;;;;;;41.70;15.60;;;;;;;8.54;80.87;98262.94;5076222;28;20136;-44
2024/03/10 11:19:46;;;;;;;40.45;13.75;;;;;;;8.57;81.11;98270.59;5074037;28;20386;-44
2024/03/10 11:22:14;;;;;;;37.97;13.15;;;;;;;8.57;81.25;98268.00;5080841;28;20131;-43
2024/03/10 11:24:41;;;;;;;36.78;13.15;;;;;;;8.57;80.63;98268.00;5077920;28;20077;-46
2024/03/10 11:29:48;;;;;;;40.30;14.82;;;;;;;8.57;81.10;98268.00;5097517;27;20357;-49
2024/03/10 11:32:35;;;;;;;32.75;14.23;;;;;;;8.57;81.20;98270.59;5021180;27;20127;-42
2024/03/10 11:35:07;;;;;;;39.58;13.32;;;;;;;8.60;80.75;98267.94;5023955;28;20048;-44
2024/03/10 11:37:36;;;;;;;41.42;15.82;;;;;;;8.62;80.59;98271.34;5024111;28;20080;-48
2024/03/10 11:40:04;;;;;;;34.13;13.60;;;;;;;8.60;80.31;98270.53;5024066;28;20053;-46
2024/03/10 11:42:32;;;;;;;35.72;13.80;;;;;;;8.58;80.89;98265.41;5019558;28;20049;-45
2024/03/10 11:45:02;;;;;;;53.40;21.20;;;;;;;8.62;80.89;98273.94;5021441;28;20053;-45
2024/03/10 11:47:31;;;;;;;62.20;21.70;;;;;;;8.62;80.79;98271.34;5025774;28;20057;-46
2024/03/10 11:50:04;;;;;;;66.65;25.30;;;;;;;8.65;80.99;98270.44;5024703;28;20182;-46
2024/03/10 11:52:31;;;;;;;32.67;11.80;;;;;;;8.67;81.02;98277.25;5024092;28;20141;-49
2024/03/10 11:54:59;;;;;;;35.03;13.75;;;;;;;8.68;81.28;98276.34;5025713;28;20049;-45
2024/03/10 11:57:26;;;;;;;39.15;14.40;;;;;;;8.70;81.15;98274.59;5021712;28;20049;-44
2024/03/10 11:59:54;;;;;;;30.55;11.73;;;;;;;8.69;80.57;98285.81;5025895;28;20061;-45
2024/03/10 12:02:22;;;;;;;31.00;12.27;;;;;;;8.68;80.71;98293.59;5025825;28;20140;-45
2024/03/10 12:04:50;;;;;;;30.83;12.48;;;;;;;8.67;80.72;98282.41;5020598;28;20092;-46